TimeEST,TemperatureF,Dew PointF,Humidity,Sea Level PressureIn,VisibilityMPH,Wind Direction,Wind SpeedMPH,Gust SpeedMPH,PrecipitationIn,Events,Conditions,WindDirDegrees,DateUTC
12:54 AM,53.1,51.1,93,29.96,10.0,SSW,10.4,-,N/A,,Clear,210,2013-01-12 05:54:00
1:54 AM,53.1,51.1,93,29.97,10.0,SSW,10.4,-,N/A,,Clear,210,2013-01-12 06:54:00
2:50 AM,53.6,53.6,100,29.96,10.0,SSW,10.4,-,N/A,,Mostly Cloudy,210,2013-01-12 07:50:00
2:54 AM,55.0,54.0,96,29.97,10.0,SSW,13.8,-,N/A,,Mostly Cloudy,210,2013-01-12 07:54:00
3:54 AM,57.0,55.0,93,29.99,10.0,SW,13.8,-,N/A,,Overcast,230,2013-01-12 08:54:00
4:38 AM,57.2,55.4,94,29.97,10.0,SW,12.7,-,N/A,,Overcast,220,2013-01-12 09:38:00
4:54 AM,57.0,55.0,93,29.97,10.0,SW,12.7,-,N/A,,Overcast,220,2013-01-12 09:54:00
5:54 AM,55.0,53.1,93,30.00,10.0,SW,10.4,-,N/A,,Mostly Cloudy,220,2013-01-12 10:54:00
6:54 AM,55.0,54.0,96,30.01,10.0,SW,11.5,-,N/A,,Overcast,220,2013-01-12 11:54:00
7:33 AM,55.4,53.6,94,30.00,10.0,SSW,8.1,-,N/A,,Scattered Clouds,210,2013-01-12 12:33:00
7:54 AM,53.1,53.1,100,30.04,7.0,SSW,6.9,-,N/A,,Clear,200,2013-01-12 12:54:00
8:30 AM,55.4,55.4,100,30.03,7.0,SSW,9.2,-,N/A,,Mostly Cloudy,210,2013-01-12 13:30:00
8:45 AM,57.2,55.4,94,30.03,9.0,SW,12.7,-,N/A,,Scattered Clouds,220,2013-01-12 13:45:00
8:54 AM,57.0,55.0,93,30.05,9.0,SSW,11.5,-,N/A,,Scattered Clouds,210,2013-01-12 13:54:00
9:54 AM,60.1,57.0,90,30.06,10.0,SW,10.4,-,N/A,,Clear,220,2013-01-12 14:54:00
10:54 AM,61.0,57.0,87,30.03,10.0,SSW,11.5,-,N/A,,Partly Cloudy,210,2013-01-12 15:54:00
11:54 AM,63.0,57.9,84,30.01,10.0,SW,10.4,-,N/A,,Partly Cloudy,220,2013-01-12 16:54:00
12:50 PM,62.6,57.2,82,30.00,10.0,WSW,13.8,-,N/A,,Overcast,240,2013-01-12 17:50:00
12:54 PM,63.0,57.0,81,30.02,10.0,WSW,10.4,-,N/A,,Overcast,240,2013-01-12 17:54:00
1:33 PM,62.6,57.2,82,29.99,10.0,WSW,6.9,-,N/A,,Overcast,250,2013-01-12 18:33:00
1:54 PM,63.0,57.9,84,30.00,10.0,SW,3.5,-,N/A,,Overcast,230,2013-01-12 18:54:00
2:54 PM,62.1,59.0,90,30.01,8.0,Calm,Calm,-,N/A,,Overcast,0,2013-01-12 19:54:00
3:54 PM,61.0,59.0,93,30.00,7.0,Calm,Calm,-,N/A,,Overcast,0,2013-01-12 20:54:00
4:54 PM,60.1,59.0,96,29.97,5.0,ESE,9.2,-,0.00,,Mostly Cloudy,120,2013-01-12 21:54:00
5:30 PM,60.8,59.0,94,29.95,6.0,ESE,5.8,-,N/A,,Overcast,110,2013-01-12 22:30:00
5:54 PM,60.1,57.9,93,29.96,7.0,SE,4.6,-,N/A,,Overcast,130,2013-01-12 22:54:00
6:23 PM,60.8,59.0,94,29.95,2.5,ESE,4.6,-,0.00,Rain,Light Rain,120,2013-01-12 23:23:00
6:33 PM,60.8,59.0,94,29.95,3.0,Calm,Calm,-,0.01,,Overcast,0,2013-01-12 23:33:00
6:40 PM,60.8,59.0,94,29.95,2.0,SE,4.6,-,0.01,Rain,Light Rain,130,2013-01-12 23:40:00
6:54 PM,60.1,59.0,96,29.96,1.0,SE,4.6,-,0.01,Rain,Light Rain,140,2013-01-12 23:54:00
7:04 PM,60.8,59.0,94,29.94,0.8,SE,5.8,-,0.00,,Overcast,140,2013-01-13 00:04:00
7:17 PM,60.8,60.8,100,29.93,1.2,SE,6.9,-,0.00,,Overcast,140,2013-01-13 00:17:00
7:28 PM,60.8,60.8,100,29.92,3.0,SE,8.1,-,0.00,,Overcast,140,2013-01-13 00:28:00
8:31 PM,60.8,60.8,100,29.89,8.0,SSE,11.5,-,0.01,,Overcast,160,2013-01-13 01:31:00
8:54 PM,62.1,60.1,93,29.88,10.0,South,13.8,-,0.01,,Overcast,170,2013-01-13 01:54:00
9:46 PM,62.6,60.8,94,29.87,10.0,South,16.1,24.2,N/A,,Overcast,180,2013-01-13 02:46:00
9:54 PM,62.1,61.0,96,29.87,10.0,South,12.7,24.2,N/A,,Overcast,180,2013-01-13 02:54:00
10:23 PM,62.6,60.8,94,29.86,10.0,South,13.8,-,N/A,,Overcast,180,2013-01-13 03:23:00
10:52 PM,62.6,60.8,94,29.85,10.0,South,13.8,-,N/A,,Mostly Cloudy,180,2013-01-13 03:52:00
10:54 PM,62.1,60.1,93,29.85,10.0,South,15.0,-,N/A,,Mostly Cloudy,180,2013-01-13 03:54:00
11:04 PM,62.6,60.8,94,29.84,10.0,South,13.8,-,N/A,,Mostly Cloudy,180,2013-01-13 04:04:00
11:54 PM,63.0,60.1,90,29.83,10.0,South,17.3,25.3,N/A,,Partly Cloudy,190,2013-01-13 04:54:00